createdAt,value
2018-12-14T00:00:02.143Z,26.77
2018-12-14T00:02:38.604Z,27.55
2018-12-14T00:05:09.557Z,26.60
2018-12-14T00:07:40.374Z,25.80
2018-12-14T00:10:09.454Z,26.93
2018-12-14T00:12:38.258Z,27.10
2018-12-14T00:15:07.644Z,26.27
2018-12-14T00:17:36.439Z,26.80
2018-12-14T00:20:07.441Z,24.77
2018-12-14T00:22:36.310Z,24.72
2018-12-14T00:25:05.678Z,25.70
2018-12-14T00:27:34.534Z,25.85
2018-12-14T00:30:04.070Z,25.45
2018-12-14T00:32:32.918Z,27.27
2018-12-14T00:35:01.739Z,26.15
2018-12-14T00:37:30.468Z,24.75
2018-12-14T00:39:59.244Z,25.20
2018-12-14T00:42:28.012Z,26.60
2018-12-14T00:44:56.793Z,26.17
2018-12-14T00:47:25.554Z,28.20
2018-12-14T00:49:54.398Z,24.20
2018-12-14T00:52:23.241Z,25.35
2018-12-14T00:54:52.021Z,25.20
2018-12-14T00:57:20.806Z,26.70
2018-12-14T00:59:49.632Z,25.57
2018-12-14T01:02:23.925Z,24.57
2018-12-14T01:04:52.685Z,25.40
2018-12-14T01:07:21.538Z,25.37
2018-12-14T01:09:50.386Z,24.70
2018-12-14T01:12:19.156Z,24.30
2018-12-14T01:14:48.067Z,26.23
2018-12-14T01:17:17.029Z,25.37
2018-12-14T01:19:45.925Z,26.17
2018-12-14T01:22:14.706Z,27.17
2018-12-14T01:24:43.520Z,26.87
2018-12-14T01:27:12.335Z,24.32
2018-12-14T01:29:41.154Z,24.15
2018-12-14T01:32:09.970Z,24.55
2018-12-14T01:34:38.807Z,24.63
2018-12-14T01:37:07.598Z,22.87
2018-12-14T01:39:36.433Z,23.98
2018-12-14T01:42:05.280Z,22.82
2018-12-14T01:44:34.150Z,23.75
2018-12-14T01:47:03.066Z,22.95
2018-12-14T01:49:31.881Z,23.00
2018-12-14T01:52:00.821Z,23.70
2018-12-14T01:54:29.629Z,22.87
2018-12-14T01:56:58.513Z,21.97
2018-12-14T01:59:27.482Z,21.75
2018-12-14T02:01:56.306Z,21.57
2018-12-14T02:04:25.205Z,22.05
2018-12-14T02:06:54.010Z,22.00
2018-12-14T02:09:23.108Z,22.20
2018-12-14T02:11:51.919Z,24.37
2018-12-14T02:14:20.732Z,21.68
2018-12-14T02:16:49.518Z,23.10
2018-12-14T02:19:18.294Z,23.18
2018-12-14T02:21:47.115Z,24.15
2018-12-14T02:24:16.000Z,22.32
2018-12-14T02:26:44.848Z,20.52
2018-12-14T02:29:13.622Z,22.42
2018-12-14T02:31:42.402Z,22.17
2018-12-14T02:34:11.176Z,22.73
2018-12-14T02:36:39.966Z,22.33
2018-12-14T02:39:08.994Z,21.67
2018-12-14T02:41:37.792Z,22.10
2018-12-14T02:44:06.585Z,22.32
2018-12-14T02:46:35.458Z,20.23
2018-12-14T02:49:04.303Z,22.97
2018-12-14T02:51:33.095Z,20.57
2018-12-14T02:54:01.867Z,20.55
2018-12-14T02:56:30.738Z,19.35
2018-12-14T02:58:59.585Z,18.82
2018-12-14T03:01:28.370Z,20.68
2018-12-14T03:03:57.313Z,18.17
2018-12-14T03:06:26.193Z,18.62
2018-12-14T03:08:54.975Z,18.10
2018-12-14T03:11:23.763Z,18.20
2018-12-14T03:13:52.566Z,18.35
2018-12-14T03:16:21.372Z,19.55
2018-12-14T03:18:50.170Z,19.92
2018-12-14T03:21:18.982Z,19.27
2018-12-14T03:23:47.801Z,19.75
2018-12-14T03:26:16.651Z,21.95
2018-12-14T03:28:45.504Z,21.42
2018-12-14T03:31:14.387Z,21.50
2018-12-14T03:33:43.271Z,20.57
2018-12-14T03:36:12.088Z,20.88
2018-12-14T03:38:40.925Z,19.92
2018-12-14T03:41:09.821Z,21.73
2018-12-14T03:43:38.679Z,22.50
2018-12-14T03:46:07.517Z,20.23
2018-12-14T03:48:36.385Z,17.55
2018-12-14T03:51:05.217Z,16.73
2018-12-14T03:53:34.053Z,16.62
2018-12-14T03:56:02.893Z,15.83
2018-12-14T03:58:32.679Z,15.35
2018-12-14T04:01:01.464Z,12.90
2018-12-14T04:03:30.239Z,13.60
2018-12-14T04:05:59.079Z,12.45
2018-12-14T04:08:28.012Z,13.30
2018-12-14T04:10:56.854Z,12.30
2018-12-14T04:13:25.661Z,11.63
2018-12-14T04:15:54.457Z,12.90
2018-12-14T04:18:23.225Z,13.70
2018-12-14T04:20:52.110Z,16.42
2018-12-14T04:23:20.902Z,18.00
2018-12-14T04:25:49.696Z,19.50
2018-12-14T04:28:18.571Z,20.93
2018-12-14T04:30:47.385Z,19.70
2018-12-14T04:33:16.666Z,20.67
2018-12-14T04:35:45.672Z,22.42
2018-12-14T04:38:16.577Z,21.45
2018-12-14T04:40:45.402Z,22.15
2018-12-14T04:43:14.224Z,21.02
2018-12-14T04:45:43.017Z,21.30
2018-12-14T04:48:11.847Z,21.45
2018-12-14T04:50:40.698Z,21.20
2018-12-14T04:53:09.537Z,19.87
2018-12-14T04:55:38.338Z,22.45
2018-12-14T04:58:07.146Z,20.82
2018-12-14T05:00:36.048Z,20.97
2018-12-14T05:03:04.879Z,20.50
2018-12-14T05:05:33.838Z,21.90
2018-12-14T05:08:02.659Z,22.35
2018-12-14T05:10:31.527Z,19.52
2018-12-14T05:13:00.316Z,20.35
2018-12-14T05:15:29.105Z,22.42
2018-12-14T05:17:57.873Z,20.97
2018-12-14T05:20:26.658Z,19.50
2018-12-14T05:22:55.506Z,19.57
2018-12-14T05:25:24.321Z,19.77
2018-12-14T05:27:53.187Z,21.00
2018-12-14T05:30:22.098Z,20.92
2018-12-14T05:32:50.889Z,20.77
2018-12-14T05:35:19.678Z,21.27
2018-12-14T05:37:48.481Z,18.45
2018-12-14T05:40:17.268Z,21.23
2018-12-14T05:42:47.001Z,20.80
2018-12-14T05:45:15.809Z,19.92
2018-12-14T05:47:44.902Z,20.95
2018-12-14T05:50:13.709Z,19.45
2018-12-14T05:52:42.482Z,20.52
2018-12-14T05:55:11.278Z,21.17
2018-12-14T05:57:40.060Z,19.42
2018-12-14T06:00:10.942Z,20.35
2018-12-14T06:02:40.388Z,20.27
2018-12-14T06:05:09.280Z,18.70
2018-12-14T06:07:38.121Z,20.27
2018-12-14T06:10:07.611Z,20.77
2018-12-14T06:12:36.543Z,20.68
2018-12-14T06:15:06.224Z,20.55
2018-12-14T06:17:34.998Z,20.52
2018-12-14T06:20:04.632Z,22.15
2018-12-14T06:22:33.372Z,22.30
2018-12-14T06:25:02.329Z,21.53
2018-12-14T06:27:31.137Z,21.20
2018-12-14T06:29:59.903Z,21.83
2018-12-14T06:32:28.655Z,20.02
2018-12-14T06:34:57.465Z,21.10
2018-12-14T06:37:26.540Z,20.37
2018-12-14T06:39:55.397Z,22.60
2018-12-14T06:42:24.238Z,21.25
2018-12-14T06:44:53.094Z,22.37
2018-12-14T06:47:21.878Z,23.77
2018-12-14T06:49:50.720Z,22.35
2018-12-14T06:52:19.582Z,21.20
2018-12-14T06:54:48.362Z,22.15
2018-12-14T06:57:18.788Z,23.92
2018-12-14T06:59:47.521Z,23.62
2018-12-14T07:02:16.389Z,24.23
2018-12-14T07:04:45.154Z,21.47
2018-12-14T07:07:13.956Z,23.57
2018-12-14T07:09:42.877Z,22.90
2018-12-14T07:12:11.813Z,25.70
2018-12-14T07:14:40.599Z,23.98
2018-12-14T07:17:09.370Z,24.60
2018-12-14T07:19:39.346Z,23.85
2018-12-14T07:22:08.213Z,21.30
2018-12-14T07:24:36.971Z,25.43
2018-12-14T07:27:05.753Z,24.20
2018-12-14T07:29:34.677Z,23.92
2018-12-14T07:32:04.683Z,24.80
2018-12-14T07:34:33.458Z,26.25
2018-12-14T07:37:02.255Z,24.43
2018-12-14T07:39:31.185Z,24.33
2018-12-14T07:41:59.970Z,23.87
2018-12-14T07:44:29.689Z,23.03
2018-12-14T07:46:58.556Z,24.43
2018-12-14T07:49:27.361Z,23.67
2018-12-14T07:51:56.322Z,24.43
2018-12-14T07:54:25.175Z,24.63
2018-12-14T07:56:53.989Z,24.18
2018-12-14T07:59:22.771Z,24.15
2018-12-14T08:01:51.633Z,24.15
2018-12-14T08:04:20.406Z,23.98
2018-12-14T08:06:49.225Z,24.72
2018-12-14T08:09:18.589Z,26.23
2018-12-14T08:11:47.847Z,26.70
2018-12-14T08:14:16.688Z,25.50
2018-12-14T08:16:45.525Z,25.40
2018-12-14T08:19:14.362Z,26.37
2018-12-14T08:21:43.154Z,26.35
2018-12-14T08:24:11.952Z,25.17
2018-12-14T08:26:40.843Z,26.90
2018-12-14T08:29:09.658Z,26.17
2018-12-14T08:31:38.531Z,27.23
2018-12-14T08:34:07.341Z,27.67
2018-12-14T08:36:36.162Z,26.37
2018-12-14T08:39:06.788Z,28.43
2018-12-14T08:41:36.033Z,28.42
2018-12-14T08:44:04.853Z,28.75
2018-12-14T08:46:33.642Z,29.57
2018-12-14T08:49:02.523Z,26.93
2018-12-14T08:51:31.307Z,27.70
2018-12-14T08:54:00.245Z,27.50
2018-12-14T08:56:29.050Z,30.13
2018-12-14T08:58:57.864Z,28.40
2018-12-14T09:01:26.671Z,29.05
2018-12-14T09:03:55.454Z,28.05
2018-12-14T09:06:24.280Z,28.07
2018-12-14T09:08:53.118Z,27.37
2018-12-14T09:11:22.001Z,27.45
2018-12-14T09:13:50.897Z,27.77
2018-12-14T09:16:19.806Z,28.92
2018-12-14T09:18:48.587Z,28.95
2018-12-14T09:21:17.476Z,25.68
2018-12-14T09:23:46.411Z,27.13
2018-12-14T09:26:15.398Z,28.27
2018-12-14T09:28:44.267Z,29.32
2018-12-14T09:31:13.190Z,27.32
2018-12-14T09:33:42.194Z,27.58
2018-12-14T09:36:11.014Z,29.00
2018-12-14T09:38:39.821Z,27.15
2018-12-14T09:41:08.695Z,28.92
2018-12-14T09:43:37.510Z,28.00
2018-12-14T09:46:06.323Z,29.32
2018-12-14T09:48:35.126Z,26.68
2018-12-14T09:51:04.071Z,28.60
2018-12-14T09:53:32.930Z,27.95
2018-12-14T09:56:01.773Z,26.45
2018-12-14T09:58:30.576Z,28.50
2018-12-14T10:00:59.405Z,26.20
2018-12-14T10:03:28.263Z,27.02
2018-12-14T10:05:57.051Z,25.97
2018-12-14T10:08:26.175Z,27.62
2018-12-14T10:10:55.241Z,26.52
2018-12-14T10:13:24.253Z,25.20
2018-12-14T10:15:54.346Z,27.13
2018-12-14T10:18:23.329Z,27.55
2018-12-14T10:20:52.149Z,27.60
2018-12-14T10:23:21.056Z,26.07
2018-12-14T10:25:49.867Z,28.07
2018-12-14T10:28:18.739Z,26.07
2018-12-14T10:30:47.851Z,25.48
2018-12-14T10:33:16.647Z,28.42
2018-12-14T10:35:45.464Z,26.37
2018-12-14T10:38:14.259Z,27.27
2018-12-14T10:40:43.085Z,26.50
2018-12-14T10:43:11.874Z,26.03
2018-12-14T10:45:41.072Z,27.20
2018-12-14T10:48:09.926Z,27.17
2018-12-14T10:50:39.733Z,27.48
2018-12-14T10:53:12.189Z,26.30
2018-12-14T10:55:41.325Z,26.87
2018-12-14T10:58:10.318Z,27.10
2018-12-14T11:00:44.559Z,24.75
2018-12-14T11:03:13.460Z,26.25
2018-12-14T11:05:42.280Z,28.47
2018-12-14T11:08:11.173Z,28.67
2018-12-14T11:10:39.987Z,26.05
2018-12-14T11:13:08.811Z,27.32
2018-12-14T11:15:37.606Z,27.93
2018-12-14T11:18:06.397Z,29.67
2018-12-14T11:20:35.166Z,28.73
2018-12-14T11:23:03.938Z,28.32
2018-12-14T11:25:32.728Z,26.83
2018-12-14T11:28:01.548Z,26.20
2018-12-14T11:30:30.304Z,27.07
2018-12-14T11:32:59.066Z,26.33
2018-12-14T11:35:27.893Z,28.25
2018-12-14T11:37:56.689Z,27.27
2018-12-14T11:40:25.573Z,30.15
2018-12-14T11:42:54.357Z,25.05
2018-12-14T11:45:23.279Z,22.65
2018-12-14T11:47:52.096Z,22.05
2018-12-14T11:50:20.874Z,21.85
2018-12-14T11:52:49.630Z,20.45
2018-12-14T11:55:18.403Z,20.90
2018-12-14T11:57:47.178Z,20.35
2018-12-14T12:00:16.217Z,21.40
2018-12-14T12:02:45.034Z,20.72
2018-12-14T12:05:13.819Z,20.32
2018-12-14T12:07:43.427Z,20.95
2018-12-14T12:10:12.326Z,19.57
2018-12-14T12:12:41.306Z,21.00
2018-12-14T12:15:10.199Z,21.50
2018-12-14T12:17:40.040Z,19.77
2018-12-14T12:20:09.080Z,21.55
2018-12-14T12:22:37.940Z,20.85
2018-12-14T12:25:06.859Z,21.82
2018-12-14T12:27:35.775Z,22.35
2018-12-14T12:30:05.091Z,19.92
2018-12-14T12:32:33.873Z,21.37
2018-12-14T12:35:02.725Z,20.70
2018-12-14T12:37:31.642Z,20.82
2018-12-14T12:40:00.500Z,20.37
2018-12-14T12:42:29.283Z,19.40
2018-12-14T12:44:58.122Z,19.02
2018-12-14T12:47:27.330Z,21.37
2018-12-14T12:49:56.107Z,17.55
2018-12-14T12:52:24.906Z,18.45
2018-12-14T12:54:53.759Z,19.30
2018-12-14T12:57:22.583Z,20.08
2018-12-14T12:59:51.383Z,20.50
2018-12-14T13:02:20.142Z,20.85
2018-12-14T13:04:49.358Z,18.87
2018-12-14T13:07:18.150Z,19.50
2018-12-14T13:09:46.957Z,20.72
2018-12-14T13:12:15.767Z,18.90
2018-12-14T13:14:44.623Z,20.92
2018-12-14T13:17:13.441Z,19.62
2018-12-14T13:19:42.237Z,18.70
2018-12-14T13:22:11.030Z,19.55
2018-12-14T13:24:39.926Z,20.73
2018-12-14T13:27:08.737Z,16.23
2018-12-14T13:29:37.541Z,15.60
2018-12-14T13:32:06.329Z,17.80
2018-12-14T13:34:35.122Z,17.70
2018-12-14T13:37:04.018Z,17.12
2018-12-14T13:39:32.844Z,21.95
2018-12-14T13:42:01.706Z,19.80
2018-12-14T13:44:31.289Z,17.65
2018-12-14T13:47:00.152Z,17.40
2018-12-14T13:49:28.949Z,18.77
2018-12-14T13:51:57.739Z,18.77
2018-12-14T13:54:26.526Z,16.75
2018-12-14T13:56:55.413Z,17.87
2018-12-14T13:59:24.453Z,17.75
2018-12-14T14:01:53.253Z,17.60
2018-12-14T14:04:22.043Z,20.52
2018-12-14T14:06:50.856Z,16.62
2018-12-14T14:09:19.946Z,17.70
2018-12-14T14:11:48.773Z,19.05
2018-12-14T14:14:18.711Z,18.35
2018-12-14T14:16:49.108Z,17.92
2018-12-14T14:19:17.870Z,19.20
2018-12-14T14:21:46.680Z,19.03
2018-12-14T14:24:15.463Z,18.17
2018-12-14T14:26:44.702Z,18.10
2018-12-14T14:29:13.618Z,18.67
2018-12-14T14:31:42.418Z,18.00
2018-12-14T14:34:11.213Z,20.40
2018-12-14T14:36:39.998Z,22.67
2018-12-14T14:39:08.798Z,21.23
2018-12-14T14:41:37.689Z,25.68
2018-12-14T14:44:06.482Z,18.40
2018-12-14T14:46:35.433Z,16.70
2018-12-14T14:49:04.329Z,19.55
2018-12-14T14:51:33.414Z,19.82
2018-12-14T14:54:03.263Z,18.50
2018-12-14T14:56:32.066Z,17.17
2018-12-14T14:59:00.874Z,19.52
2018-12-14T15:01:29.860Z,16.75
2018-12-14T15:03:58.662Z,19.00
2018-12-14T15:06:27.463Z,14.10
2018-12-14T15:08:56.647Z,15.05
2018-12-14T15:11:25.567Z,14.98
2018-12-14T15:13:54.375Z,15.08
2018-12-14T15:16:23.226Z,16.15
2018-12-14T15:18:52.122Z,18.12
2018-12-14T15:21:20.889Z,14.18
2018-12-14T15:23:49.690Z,16.37
2018-12-14T15:26:18.680Z,13.22
2018-12-14T15:28:47.469Z,14.03
2018-12-14T15:31:16.262Z,15.55
2018-12-14T15:33:45.059Z,13.58
2018-12-14T15:36:14.046Z,16.53
2018-12-14T15:38:42.892Z,14.20
2018-12-14T15:41:11.845Z,15.07
2018-12-14T15:43:40.632Z,14.57
2018-12-14T15:46:09.639Z,13.80
2018-12-14T15:48:38.453Z,14.23
2018-12-14T15:51:07.235Z,13.50
2018-12-14T15:53:36.131Z,13.18
2018-12-14T15:56:04.932Z,13.98
2018-12-14T15:58:33.843Z,14.90
2018-12-14T16:01:02.789Z,14.03
2018-12-14T16:03:32.654Z,13.50
2018-12-14T16:06:01.419Z,13.90
2018-12-14T16:08:30.238Z,16.73
2018-12-14T16:10:59.043Z,15.98
2018-12-14T16:13:27.870Z,14.38
2018-12-14T16:15:56.692Z,15.03
2018-12-14T16:18:25.595Z,12.47
2018-12-14T16:20:54.425Z,13.28
2018-12-14T16:23:23.237Z,12.95
2018-12-14T16:25:52.315Z,13.10
2018-12-14T16:28:21.179Z,14.33
2018-12-14T16:30:50.010Z,14.68
2018-12-14T16:33:18.955Z,14.73
2018-12-14T16:35:47.730Z,14.05
2018-12-14T16:38:16.544Z,14.28
2018-12-14T16:40:45.351Z,16.07
2018-12-14T16:43:14.219Z,15.60
2018-12-14T16:45:43.014Z,15.72
2018-12-14T16:48:11.782Z,15.65
2018-12-14T16:50:40.623Z,17.63
2018-12-14T16:53:09.412Z,14.43
2018-12-14T16:55:38.280Z,14.60
2018-12-14T16:58:07.039Z,14.70
2018-12-14T17:00:35.968Z,14.38
2018-12-14T17:03:05.247Z,15.65
2018-12-14T17:05:34.029Z,15.63
2018-12-14T17:08:02.864Z,16.57
2018-12-14T17:10:31.694Z,14.70
2018-12-14T17:13:00.544Z,18.67
2018-12-14T17:15:33.188Z,19.05
2018-12-14T17:18:00.089Z,18.80
2018-12-14T17:20:28.893Z,19.10
2018-12-14T17:22:57.675Z,20.27
2018-12-14T17:25:26.434Z,20.08
2018-12-14T17:27:55.294Z,21.40
2018-12-14T17:30:24.082Z,20.77
2018-12-14T17:32:52.863Z,23.23
2018-12-14T17:35:21.649Z,20.88
2018-12-14T17:37:50.527Z,20.82
2018-12-14T17:40:19.304Z,21.93
2018-12-14T17:42:50.211Z,22.15
2018-12-14T17:45:19.066Z,21.68
2018-12-14T17:47:47.919Z,23.10
2018-12-14T17:50:16.766Z,22.15
2018-12-14T17:52:45.561Z,23.42
2018-12-14T17:55:14.351Z,19.75
2018-12-14T17:57:43.127Z,20.90
2018-12-14T18:00:12.039Z,22.00
2018-12-14T18:02:41.974Z,21.42
2018-12-14T18:05:10.747Z,24.00
2018-12-14T18:07:39.545Z,20.43
2018-12-14T18:10:08.331Z,18.50
2018-12-14T18:12:37.165Z,19.52
2018-12-14T18:15:06.147Z,17.60
2018-12-14T18:17:34.926Z,15.85
2018-12-14T18:20:04.598Z,18.05
2018-12-14T18:22:33.484Z,16.12
2018-12-14T18:25:02.566Z,15.08
2018-12-14T18:27:31.486Z,16.12
2018-12-14T18:30:00.461Z,17.05
2018-12-14T18:32:29.278Z,15.48
2018-12-14T18:34:58.071Z,16.67
2018-12-14T18:37:26.871Z,16.20
2018-12-14T18:39:55.738Z,16.17
2018-12-14T18:42:24.521Z,16.50
2018-12-14T18:44:53.328Z,17.92
2018-12-14T18:47:22.345Z,16.90
2018-12-14T18:49:51.134Z,15.95
2018-12-14T18:52:19.994Z,16.10
2018-12-14T18:54:48.889Z,16.87
2018-12-14T18:57:17.642Z,17.07
2018-12-14T18:59:46.418Z,18.30
2018-12-14T19:02:15.302Z,18.10
2018-12-14T19:04:44.089Z,20.53
2018-12-14T19:07:12.937Z,20.67
2018-12-14T19:09:41.822Z,18.32
2018-12-14T19:12:11.064Z,19.75
2018-12-14T19:14:39.824Z,16.70
2018-12-14T19:17:08.606Z,17.62
2018-12-14T19:19:37.365Z,17.27
2018-12-14T19:22:06.295Z,17.83
2018-12-14T19:24:35.215Z,16.40
2018-12-14T19:27:04.179Z,15.40
2018-12-14T19:29:32.973Z,20.97
2018-12-14T19:32:01.791Z,89.73
2018-12-14T19:34:31.565Z,151.03
2018-12-14T19:37:00.563Z,63.10
2018-12-14T19:39:29.478Z,20.90
2018-12-14T19:41:58.266Z,35.67
2018-12-14T19:44:27.186Z,21.55
2018-12-14T19:46:57.914Z,23.45
2018-12-14T19:49:26.865Z,20.65
2018-12-14T19:51:56.453Z,17.57
2018-12-14T19:54:25.531Z,17.20
2018-12-14T19:56:54.403Z,16.05
2018-12-14T19:59:23.311Z,16.62
2018-12-14T20:01:52.086Z,17.32
2018-12-14T20:04:20.913Z,17.65
2018-12-14T20:06:49.714Z,17.07
2018-12-14T20:09:18.571Z,16.67
2018-12-14T20:11:47.482Z,17.05
2018-12-14T20:14:17.401Z,16.50
2018-12-14T20:16:47.285Z,17.32
2018-12-14T20:19:16.097Z,15.80
2018-12-14T20:21:44.866Z,15.25
2018-12-14T20:24:13.678Z,16.32
2018-12-14T20:26:42.494Z,15.18
2018-12-14T20:29:11.336Z,14.58
2018-12-14T20:31:40.144Z,17.42
2018-12-14T20:34:08.961Z,13.67
2018-12-14T20:36:37.894Z,18.00
2018-12-14T20:39:07.578Z,32.00
2018-12-14T20:41:36.464Z,20.62
2018-12-14T20:44:05.293Z,14.23
2018-12-14T20:46:34.181Z,13.50
2018-12-14T20:49:03.070Z,15.15
2018-12-14T20:51:31.956Z,14.95
2018-12-14T20:54:02.042Z,13.38
2018-12-14T20:56:30.847Z,14.83
2018-12-14T20:58:59.713Z,15.60
2018-12-14T21:01:28.536Z,14.40
2018-12-14T21:03:57.340Z,13.87
2018-12-14T21:06:26.127Z,14.38
2018-12-14T21:08:54.928Z,13.83
2018-12-14T21:11:23.726Z,12.23
2018-12-14T21:13:52.631Z,12.50
2018-12-14T21:16:25.881Z,12.95
2018-12-14T21:18:52.304Z,14.45
2018-12-14T21:21:21.251Z,12.63
2018-12-14T21:23:50.090Z,12.58
2018-12-14T21:26:18.906Z,13.85
2018-12-14T21:28:47.861Z,13.10
2018-12-14T21:31:16.698Z,14.18
2018-12-14T21:33:45.566Z,14.73
2018-12-14T21:36:14.478Z,13.10
2018-12-14T21:38:43.326Z,13.00
2018-12-14T21:41:12.185Z,12.73
2018-12-14T21:43:41.008Z,13.40
2018-12-14T21:46:14.212Z,13.40
2018-12-14T21:48:43.011Z,12.45
2018-12-14T21:51:11.897Z,12.53
2018-12-14T21:53:40.857Z,12.63
2018-12-14T21:56:09.841Z,13.70
2018-12-14T21:58:38.652Z,12.57
2018-12-14T22:01:07.750Z,12.33
2018-12-14T22:03:36.591Z,13.80
2018-12-14T22:06:05.528Z,14.10
2018-12-14T22:08:34.347Z,13.25
2018-12-14T22:11:03.182Z,12.43
2018-12-14T22:13:32.102Z,12.90
2018-12-14T22:16:00.914Z,13.20
2018-12-14T22:18:29.838Z,13.07
2018-12-14T22:20:58.716Z,12.90
2018-12-14T22:23:27.558Z,12.33
2018-12-14T22:25:56.384Z,11.70
2018-12-14T22:28:25.216Z,12.20
2018-12-14T22:30:54.053Z,12.80
2018-12-14T22:33:22.950Z,12.73
2018-12-14T22:35:51.769Z,13.17
2018-12-14T22:38:20.578Z,11.33
2018-12-14T22:40:49.435Z,12.47
2018-12-14T22:43:18.262Z,11.43
2018-12-14T22:45:47.115Z,12.98
2018-12-14T22:48:15.907Z,12.82
2018-12-14T22:50:44.717Z,14.20
2018-12-14T22:53:13.499Z,13.80
2018-12-14T22:55:42.316Z,11.80
2018-12-14T22:58:11.135Z,12.00
2018-12-14T23:00:45.402Z,12.78
2018-12-14T23:03:14.247Z,11.77
2018-12-14T23:05:43.164Z,10.90
2018-12-14T23:08:11.974Z,12.47
2018-12-14T23:10:40.974Z,10.97
2018-12-14T23:13:10.919Z,12.73
2018-12-14T23:15:39.777Z,11.57
2018-12-14T23:18:08.592Z,12.28
2018-12-14T23:20:37.443Z,11.18
2018-12-14T23:23:06.353Z,10.95
2018-12-14T23:25:35.171Z,11.80
2018-12-14T23:28:03.998Z,11.10
2018-12-14T23:30:32.850Z,11.33
2018-12-14T23:33:01.675Z,11.38
2018-12-14T23:35:30.513Z,10.53
2018-12-14T23:37:59.413Z,10.20
2018-12-14T23:40:28.237Z,11.18
2018-12-14T23:42:57.047Z,11.03
2018-12-14T23:45:25.860Z,11.57
2018-12-14T23:47:54.728Z,10.45
2018-12-14T23:50:23.529Z,10.75
2018-12-14T23:52:52.338Z,10.10
2018-12-14T23:55:21.183Z,11.23
2018-12-14T23:57:50.074Z,10.70
